createdAt,value
2023-03-23T15:58:53.669Z,51.70
2023-03-23T16:01:27.612Z,51.90
2023-03-23T16:04:14.253Z,55.80
2023-03-23T16:06:43.166Z,59.70
2023-03-23T16:09:20.704Z,59.10
2023-03-23T16:11:48.294Z,61.10
2023-03-23T16:14:15.954Z,60.60
2023-03-23T16:16:51.176Z,60.90
2023-03-23T16:19:24.115Z,62.10
2023-03-23T16:21:51.622Z,62.70
2023-03-23T16:24:19.398Z,63.00
2023-03-23T16:26:47.018Z,63.00
2023-03-23T16:29:28.957Z,63.50
2023-03-23T16:32:04.788Z,63.50
2023-03-23T16:34:33.725Z,63.60
2023-03-23T16:37:02.081Z,63.40
2023-03-23T16:39:29.857Z,63.40
2023-03-23T16:41:57.479Z,63.30
2023-03-23T16:44:25.263Z,63.40
2023-03-23T16:46:52.801Z,63.30
2023-03-23T16:49:20.308Z,63.50
2023-03-23T16:51:48.214Z,63.50
2023-03-23T16:54:15.788Z,63.80
2023-03-23T16:56:46.661Z,63.90
2023-03-23T16:59:14.344Z,64.00
2023-03-23T17:01:43.064Z,64.00
2023-03-23T17:04:11.247Z,63.80
2023-03-23T17:06:38.882Z,63.70
2023-03-23T17:09:07.776Z,63.80
2023-03-23T17:11:35.700Z,63.60
2023-03-23T17:14:03.641Z,64.10
2023-03-23T17:16:31.219Z,64.10
2023-03-23T17:18:58.836Z,64.40
2023-03-23T17:21:26.960Z,65.00
2023-03-23T17:23:54.557Z,63.50
2023-03-23T17:26:22.061Z,63.70
2023-03-23T17:28:49.694Z,63.70
2023-03-23T17:31:17.308Z,63.50
2023-03-23T17:33:44.989Z,63.20
2023-03-23T17:36:12.626Z,61.20
2023-03-23T17:38:40.208Z,59.80
2023-03-23T17:41:08.171Z,58.90
2023-03-23T17:43:36.315Z,58.00
2023-03-23T17:46:04.427Z,56.80
2023-03-23T17:48:32.172Z,56.60
2023-03-23T17:51:02.278Z,56.00
2023-03-23T17:53:35.527Z,55.60
2023-03-23T17:56:05.135Z,55.20
2023-03-23T17:58:33.306Z,54.80
2023-03-23T18:01:01.549Z,54.30
2023-03-23T18:03:29.566Z,54.10
2023-03-23T18:06:03.573Z,53.80
2023-03-23T18:08:31.821Z,54.10
2023-03-23T18:10:59.310Z,53.80
2023-03-23T18:13:29.758Z,53.30
2023-03-23T18:15:58.253Z,53.60
2023-03-23T18:18:26.481Z,53.60
2023-03-23T18:21:03.679Z,53.90
2023-03-23T18:23:39.021Z,53.50
2023-03-23T18:26:13.915Z,53.90
2023-03-23T18:28:41.510Z,53.60
2023-03-23T18:31:13.434Z,53.80
2023-03-23T18:33:42.458Z,53.80
2023-03-23T18:36:10.703Z,53.70
2023-03-23T18:38:39.188Z,53.90
2023-03-23T18:41:09.199Z,53.90
2023-03-23T18:43:37.303Z,53.90
2023-03-23T18:46:05.686Z,53.40
2023-03-23T18:48:33.974Z,53.60
2023-03-23T18:51:02.363Z,53.50
2023-03-23T18:53:30.507Z,53.50
2023-03-23T18:56:11.522Z,53.70
2023-03-23T18:58:39.781Z,53.40
2023-03-23T19:01:15.895Z,53.70
2023-03-23T19:03:43.845Z,53.30
2023-03-23T19:06:25.196Z,53.70
2023-03-23T19:08:54.650Z,53.50
2023-03-23T19:11:27.768Z,53.80
2023-03-23T19:14:02.332Z,53.80
2023-03-23T19:16:37.811Z,53.90
2023-03-23T19:19:08.158Z,54.60
2023-03-23T19:21:37.829Z,54.00
2023-03-23T19:24:07.224Z,53.90
2023-03-23T19:26:39.341Z,54.00
2023-03-23T19:29:26.107Z,53.80
2023-03-23T19:31:56.514Z,53.80
2023-03-23T19:34:25.608Z,53.90
2023-03-23T19:36:59.654Z,53.80
2023-03-23T19:39:34.046Z,54.10
2023-03-23T19:42:02.222Z,54.20
2023-03-23T19:44:29.752Z,54.30
2023-03-23T19:46:57.758Z,54.30
2023-03-23T19:49:25.910Z,54.60
2023-03-23T19:52:06.484Z,54.70
2023-03-23T19:54:36.742Z,54.80
2023-03-23T19:57:05.321Z,54.80
2023-03-23T19:59:32.899Z,55.20
2023-03-23T20:02:00.615Z,55.20
2023-03-23T20:04:28.162Z,55.40
2023-03-23T20:06:57.084Z,55.40
2023-03-23T20:09:25.283Z,55.50
2023-03-23T20:11:53.762Z,55.50
2023-03-23T20:14:21.299Z,55.60
2023-03-23T20:16:49.197Z,55.80
2023-03-23T20:19:16.682Z,56.20
2023-03-23T20:21:45.191Z,56.20
2023-03-23T20:24:13.018Z,56.20
2023-03-23T20:26:43.769Z,56.10
2023-03-23T20:29:11.310Z,56.40
2023-03-23T20:31:41.168Z,56.50
2023-03-23T20:34:12.902Z,56.40
2023-03-23T20:36:45.828Z,56.50
2023-03-23T20:39:23.094Z,56.40
2023-03-23T20:41:54.556Z,56.40
2023-03-23T20:44:25.331Z,56.50
2023-03-23T20:46:54.246Z,56.70
2023-03-23T20:49:22.433Z,56.90
2023-03-23T20:51:51.779Z,56.90
2023-03-23T20:54:20.576Z,57.00
2023-03-23T20:56:48.566Z,57.10
2023-03-23T20:59:16.651Z,57.20
2023-03-23T21:01:44.718Z,57.30
2023-03-23T21:04:17.863Z,57.70
2023-03-23T21:06:48.931Z,57.70
2023-03-23T21:09:17.816Z,57.70
2023-03-23T21:11:46.477Z,57.90
2023-03-23T21:14:14.470Z,58.10
2023-03-23T21:16:42.889Z,58.10
2023-03-23T21:19:11.793Z,58.20
2023-03-23T21:21:56.780Z,58.40
2023-03-23T21:24:31.306Z,58.20
2023-03-23T21:27:02.691Z,58.60
2023-03-23T21:29:30.772Z,58.60
2023-03-23T21:34:30.445Z,58.80
2023-03-23T21:36:58.103Z,58.90
2023-03-23T21:39:26.268Z,59.10
2023-03-23T21:41:54.017Z,59.20
2023-03-23T21:44:21.732Z,59.00
2023-03-23T21:46:52.073Z,59.00
2023-03-23T21:49:20.021Z,58.60
2023-03-23T21:51:49.228Z,58.50
2023-03-23T21:54:17.078Z,58.40
2023-03-23T21:56:44.756Z,58.30
2023-03-23T21:59:12.355Z,57.60
2023-03-23T22:01:42.809Z,58.10
2023-03-23T22:04:10.354Z,58.00
2023-03-23T22:06:37.956Z,58.20
2023-03-23T22:09:05.783Z,58.20
2023-03-23T22:11:33.696Z,58.20
2023-03-23T22:14:01.606Z,58.20
2023-03-23T22:16:29.381Z,58.20
2023-03-23T22:19:00.211Z,59.00
2023-03-23T22:21:29.188Z,58.50
2023-03-23T22:23:59.803Z,58.50
2023-03-23T22:26:29.481Z,58.70
2023-03-23T22:28:58.632Z,58.70
2023-03-23T22:31:30.346Z,58.70
2023-03-23T22:33:58.484Z,59.10
2023-03-23T22:36:29.323Z,59.00
2023-03-23T22:38:57.059Z,59.00
2023-03-23T22:41:31.212Z,59.10
2023-03-23T22:43:59.266Z,59.30
2023-03-23T22:46:26.967Z,59.90
2023-03-23T22:48:54.757Z,60.30
2023-03-23T22:51:23.050Z,60.50
2023-03-23T22:53:50.922Z,61.20
2023-03-23T22:56:19.237Z,62.00
2023-03-23T22:58:46.975Z,62.90
2023-03-23T23:01:20.513Z,64.20
2023-03-23T23:03:49.065Z,65.90
2023-03-23T23:06:18.020Z,67.40
2023-03-23T23:08:47.114Z,67.60
2023-03-23T23:11:17.371Z,68.40
2023-03-23T23:13:45.553Z,68.70
2023-03-23T23:16:17.098Z,69.40
2023-03-23T23:18:49.885Z,68.80
2023-03-23T23:21:22.313Z,68.50
2023-03-23T23:23:51.558Z,68.00
2023-03-23T23:26:20.160Z,68.50
2023-03-23T23:28:48.581Z,67.00
2023-03-23T23:31:26.655Z,66.90
2023-03-23T23:33:57.721Z,66.50
2023-03-23T23:36:28.173Z,66.50
2023-03-23T23:39:01.590Z,66.00
2023-03-23T23:41:30.609Z,66.10
2023-03-23T23:43:58.746Z,66.30
2023-03-23T23:46:27.739Z,66.30
2023-03-23T23:48:55.835Z,65.60
2023-03-23T23:51:27.126Z,64.70
2023-03-23T23:53:58.929Z,64.40
2023-03-23T23:56:27.342Z,64.60
2023-03-23T23:58:55.166Z,64.80
